Main page
METAR-TAF:

METAR-TAF

Airports :

Genoa, Italy

Genoa Cristoforo Colombo Airport

latitude: 44-25N, longitude: 008-51E, elevation: 2 m

Current weather observation

The report was made 10 minutes ago, at 21:20 UTC
Wind 3 kt from the North/Northwest, varying between West/Northwest and North
Temperature 9°C
Humidity 81%
Pressure 1026 hPa
Visibility 10 km or more
no clouds below 1500 m and no cumulonimbus

METAR: LIMJ 232120Z 34003KT 290V010 CAVOK 09/06 Q1026

Time: 22:30 (21:30 UTC)

Forecast

The report was made 4 hours and 30 minutes ago, at 17:00 UTC
Forecast valid from 23 at 18 UTC to 24 at 18 UTC
Wind 12 kt from the North/Northeast
Visibility 10 km or more
no clouds below 1500 m and no cumulonimbus
Becoming
from 24 at 10 UTC to 24 at 12 UTC
Wind 6 kt from the South/Southeast

TAF: LIMJ 231700Z 2318/2418 02012KT CAVOK BECMG 2410/2412 15006KT

Weather observations and forecasts of more than 4000 airports (METAR and TAF reports).

The available stations are represented by yellow and red dots on the map.

Hover mouse over dot to see the name of the station.

Then click to see weather observations and forecasts.

To change the map : click on the green buttons with a black cross to zoom in, on the green button with a dash to zoom out, or on the green arrows for adjacent maps.


METAR-TAF: